Time;durP1;ratioP1;P1;durP2;ratioP2;P2;SDS_P1;SDS_P2;PMS_P1;PMS_P2;Temp;Humidity;BMP_temperature;BMP_pressure;BME280_temperature;BME280_humidity;BME280_pressure;Samples;Min_cycle;Max_cycle;Signal;HPM_P1;HPM_P2
2023/05/11 00:01:35;;;;;;;5.32;1.95;;;;;;;11.76;76.21;98787.78;4500491;31;20136;-65
2023/05/11 00:04:02;;;;;;;2.85;1.92;;;;;;;11.64;76.45;98778.44;4500389;31;20080;-65
2023/05/11 00:06:31;;;;;;;2.50;1.92;;;;;;;11.72;76.51;98782.00;4500507;31;20083;-65
2023/05/11 00:08:58;;;;;;;4.22;1.92;;;;;;;11.57;76.61;98775.56;4500527;31;20420;-65
2023/05/11 00:11:25;;;;;;;5.15;2.55;;;;;;;11.48;77.77;98779.88;4500521;31;20152;-65
2023/05/11 00:13:53;;;;;;;4.03;2.22;;;;;;;11.50;78.34;98772.69;4484302;32;20155;-65
2023/05/11 00:16:20;;;;;;;2.72;1.62;;;;;;;11.43;78.44;98770.75;4497583;31;20140;-65
2023/05/11 00:18:48;;;;;;;2.85;1.83;;;;;;;11.32;79.74;98771.75;4500378;31;20215;-65
2023/05/11 00:21:15;;;;;;;3.90;2.00;;;;;;;11.24;80.54;98763.78;4500240;31;20093;-65
2023/05/11 00:23:42;;;;;;;5.32;1.90;;;;;;;11.19;80.92;98767.66;4500513;31;20107;-65
2023/05/11 00:26:10;;;;;;;2.25;1.58;;;;;;;11.22;80.95;98776.19;4500132;31;20111;-65
2023/05/11 00:28:37;;;;;;;3.50;2.08;;;;;;;11.17;81.44;98769.59;4500214;31;20118;-65
2023/05/11 00:31:04;;;;;;;6.45;1.85;;;;;;;11.17;81.92;98776.63;4500088;31;20103;-65
2023/05/11 00:33:32;;;;;;;2.78;1.95;;;;;;;11.15;82.18;98774.13;4500046;31;20100;-65
2023/05/11 00:35:59;;;;;;;2.78;1.90;;;;;;;11.12;82.60;98777.03;4499874;31;20087;-65
2023/05/11 00:38:26;;;;;;;3.08;2.00;;;;;;;11.06;82.98;98769.75;4500208;31;20095;-65
2023/05/11 00:40:54;;;;;;;6.22;1.95;;;;;;;11.01;83.56;98761.47;4499928;31;20122;-65
2023/05/11 00:43:21;;;;;;;5.65;2.30;;;;;;;10.97;84.12;98762.72;4499864;31;20093;-65
2023/05/11 00:45:51;;;;;;;2.60;2.05;;;;;;;10.86;85.16;98763.69;4499737;31;20096;-65
2023/05/11 00:48:18;;;;;;;2.83;1.77;;;;;;;10.83;85.69;98764.78;4500200;31;20130;-65
2023/05/11 00:50:45;;;;;;;5.78;2.28;;;;;;;10.79;86.46;98765.22;4499600;31;20561;-65
2023/05/11 00:53:12;;;;;;;5.90;1.87;;;;;;;10.71;87.08;98765.91;4499671;31;20100;-65
2023/05/11 00:55:40;;;;;;;6.12;2.33;;;;;;;10.77;86.88;98767.16;4499748;31;20208;-65
2023/05/11 00:58:07;;;;;;;2.28;1.90;;;;;;;10.74;87.27;98757.78;4499681;31;20528;-65
2023/05/11 01:00:35;;;;;;;3.55;1.80;;;;;;;10.73;88.00;98760.53;4499625;31;20168;-65
2023/05/11 01:03:03;;;;;;;7.20;2.10;;;;;;;10.75;87.75;98762.06;4499486;31;20421;-65
2023/05/11 01:06:09;;;;;;;3.22;2.03;;;;;;;10.80;87.76;98765.06;4499641;31;20428;-65
2023/05/11 01:08:43;;;;;;;3.75;2.30;;;;;;;10.84;87.39;98763.03;4434998;32;20101;-65
2023/05/11 01:11:24;;;;;;;3.30;2.15;;;;;;;10.87;87.74;98757.50;4421919;32;20458;-65
2023/05/11 01:13:55;;;;;;;3.10;2.00;;;;;;;10.90;88.23;98756.38;4419312;32;20165;-65
2023/05/11 01:16:26;;;;;;;2.22;1.90;;;;;;;10.90;88.10;98761.63;4430731;32;20612;-65
2023/05/11 01:19:00;;;;;;;6.25;2.45;;;;;;;10.93;87.72;98758.72;4434761;32;20220;-65
2023/05/11 01:21:32;;;;;;;2.53;1.90;;;;;;;11.01;86.67;98758.87;4434784;32;20164;-65
2023/05/11 01:23:59;;;;;;;3.83;2.15;;;;;;;11.04;86.63;98753.34;4422269;32;20112;-65
2023/05/11 01:26:34;;;;;;;3.33;1.80;;;;;;;11.13;85.21;98747.25;4434612;32;20495;-65
2023/05/11 01:29:23;;;;;;;3.55;2.10;;;;;;;11.15;84.82;98750.53;4437138;32;20101;-65
2023/05/11 01:31:54;;;;;;;2.35;1.70;;;;;;;11.12;85.00;98748.19;4436892;32;20151;-65
2023/05/11 01:34:24;;;;;;;2.22;2.00;;;;;;;11.13;85.35;98744.63;4424279;32;20606;-65
2023/05/11 01:36:54;;;;;;;4.90;2.10;;;;;;;11.14;84.99;98748.91;4424345;32;20116;-65
2023/05/11 01:39:31;;;;;;;4.97;2.00;;;;;;;11.24;84.36;98748.88;4424262;32;20567;-65
2023/05/11 01:42:04;;;;;;;4.57;2.50;;;;;;;11.33;83.38;98752.44;4436740;32;20598;-65
2023/05/11 01:44:32;;;;;;;2.78;1.95;;;;;;;11.30;83.19;98747.50;4442117;32;20517;-65
2023/05/11 01:47:02;;;;;;;4.45;2.08;;;;;;;11.33;82.64;98755.06;4484523;32;20084;-65
2023/05/11 01:49:32;;;;;;;5.50;2.12;;;;;;;11.37;82.76;98745.97;4484408;32;20447;-65
2023/05/11 01:52:01;;;;;;;3.20;2.15;;;;;;;11.29;83.42;98749.25;4471350;32;20161;-65
2023/05/11 01:54:30;;;;;;;3.47;1.90;;;;;;;11.34;83.48;98751.50;4484624;32;20738;-65
2023/05/11 01:56:59;;;;;;;2.35;1.75;;;;;;;11.34;83.15;98747.06;4484488;32;20166;-65
2023/05/11 01:59:27;;;;;;;5.03;1.80;;;;;;;11.34;84.02;98749.69;4485730;31;20451;-65
2023/05/11 02:01:55;;;;;;;4.47;2.50;;;;;;;11.34;83.32;98741.81;4471389;32;20109;-65
2023/05/11 02:04:23;;;;;;;5.28;2.20;;;;;;;11.37;82.91;98743.34;4484289;32;20172;-65
2023/05/11 02:06:52;;;;;;;4.68;2.00;;;;;;;11.40;83.33;98740.41;4484311;32;20092;-65
2023/05/11 02:09:20;;;;;;;3.65;1.77;;;;;;;11.38;83.45;98742.34;4484328;32;20100;-65
2023/05/11 02:11:48;;;;;;;5.75;2.45;;;;;;;11.40;83.41;98740.41;4487876;31;20163;-65
2023/05/11 02:14:20;;;;;;;4.47;1.92;;;;;;;11.33;84.11;98740.16;4500147;31;20155;-65
2023/05/11 02:16:49;;;;;;;2.67;1.67;;;;;;;11.36;83.78;98745.09;4484583;32;20109;-65
2023/05/11 02:19:19;;;;;;;4.55;2.62;;;;;;;11.34;84.09;98743.63;4484402;32;20108;-65
2023/05/11 02:21:47;;;;;;;3.45;2.12;;;;;;;11.33;84.04;98736.72;4484253;32;20130;-65
2023/05/11 02:24:15;;;;;;;4.22;1.98;;;;;;;11.26;84.47;98738.25;4485602;31;20097;-65
2023/05/11 02:26:42;;;;;;;4.45;2.55;;;;;;;11.16;84.79;98731.22;4471177;32;20165;-65
2023/05/11 02:29:10;;;;;;;4.78;2.15;;;;;;;11.16;84.98;98733.03;4485425;31;20548;-65
2023/05/11 02:31:41;;;;;;;2.65;1.62;;;;;;;11.17;84.59;98734.66;4485275;31;20100;-65
2023/05/11 02:34:19;;;;;;;6.35;2.30;;;;;;;11.23;84.36;98735.91;4483972;32;20660;-65
2023/05/11 02:36:48;;;;;;;2.60;1.67;;;;;;;11.12;84.56;98729.84;4484537;32;20114;-65
2023/05/11 02:39:20;;;;;;;5.70;1.98;;;;;;;11.18;83.81;98729.28;4483994;32;20099;-65
2023/05/11 02:41:54;;;;;;;2.58;1.75;;;;;;;11.19;82.92;98719.63;4484296;32;20126;-65
2023/05/11 02:44:23;;;;;;;3.53;2.05;;;;;;;11.04;83.71;98719.25;4484261;32;20122;-65
2023/05/11 02:46:51;;;;;;;3.08;1.85;;;;;;;11.12;83.47;98721.16;4484017;32;20150;-65
2023/05/11 02:49:20;;;;;;;3.30;1.87;;;;;;;11.11;82.62;98715.09;4484015;32;20119;-65
2023/05/11 02:51:48;;;;;;;6.53;1.90;;;;;;;11.03;83.32;98719.41;4483935;32;20109;-65
2023/05/11 02:54:16;;;;;;;4.47;1.85;;;;;;;10.92;84.41;98712.53;4484053;32;20122;-65
2023/05/11 02:56:45;;;;;;;3.08;2.12;;;;;;;10.92;83.09;98712.53;4484324;32;20096;-65
2023/05/11 02:59:13;;;;;;;2.45;2.05;;;;;;;10.90;83.18;98711.81;4483948;32;20518;-65
2023/05/11 03:01:40;;;;;;;3.65;1.87;;;;;;;10.85;83.85;98709.62;4483961;32;20454;-65
2023/05/11 03:04:08;;;;;;;2.65;1.80;;;;;;;10.77;84.54;98715.56;4484091;32;20560;-65
2023/05/11 03:06:36;;;;;;;3.65;2.03;;;;;;;10.77;84.54;98712.13;4484053;32;20410;-65
2023/05/11 03:09:04;;;;;;;3.12;2.15;;;;;;;10.67;85.15;98716.53;4485177;31;20438;-65
2023/05/11 03:11:36;;;;;;;3.58;2.40;;;;;;;10.71;84.96;98716.12;4486568;31;20096;-65
2023/05/11 03:14:04;;;;;;;4.65;1.85;;;;;;;10.67;84.39;98714.75;4499607;31;20112;-65
2023/05/11 03:16:31;;;;;;;4.35;2.30;;;;;;;10.70;84.38;98721.50;4484844;31;20093;-65
2023/05/11 03:18:58;;;;;;;3.12;2.03;;;;;;;10.70;84.66;98719.69;4483794;32;20103;-65
2023/05/11 03:21:26;;;;;;;4.10;2.30;;;;;;;10.72;84.73;98725.66;4485138;32;20118;-65
2023/05/11 03:23:54;;;;;;;3.58;2.10;;;;;;;10.74;84.22;98725.50;4484923;31;20160;-65
2023/05/11 03:26:22;;;;;;;4.25;2.08;;;;;;;10.65;84.63;98721.91;4483826;32;20415;-65
2023/05/11 03:28:50;;;;;;;3.78;2.12;;;;;;;10.68;84.23;98726.06;4485065;31;20134;-65
2023/05/11 03:31:17;;;;;;;6.62;2.50;;;;;;;10.77;84.29;98720.81;4483843;32;20103;-65
2023/05/11 03:33:44;;;;;;;7.82;2.12;;;;;;;10.75;84.15;98728.00;4485002;31;20127;-65
2023/05/11 03:36:12;;;;;;;2.92;2.08;;;;;;;10.67;84.39;98727.03;4485065;31;20084;-65
2023/05/11 03:38:40;;;;;;;3.78;2.10;;;;;;;10.56;85.59;98733.22;4485188;31;20172;-65
2023/05/11 03:41:07;;;;;;;14.48;2.40;;;;;;;10.56;85.15;98728.00;4483988;32;20465;-65
2023/05/11 03:43:35;;;;;;;10.60;3.20;;;;;;;10.57;85.70;98732.28;4485166;31;20180;-65
2023/05/11 03:46:04;;;;;;;4.22;2.22;;;;;;;10.55;85.31;98727.19;4483702;32;20489;-65
2023/05/11 03:48:31;;;;;;;2.53;1.80;;;;;;;10.47;86.38;98730.47;4483838;32;20097;-65
2023/05/11 03:50:59;;;;;;;6.40;2.42;;;;;;;10.42;86.86;98731.84;4482486;32;20190;-65
2023/05/11 03:53:26;;;;;;;5.32;1.90;;;;;;;10.36;87.49;98725.38;4484779;31;20115;-65
2023/05/11 03:55:53;;;;;;;9.48;2.12;;;;;;;10.34;88.00;98724.69;4483417;32;20114;-65
2023/05/11 03:58:21;;;;;;;11.23;2.30;;;;;;;10.37;87.75;98719.19;4484823;31;20152;-65
2023/05/11 04:00:49;;;;;;;9.35;3.00;;;;;;;10.41;87.65;98730.19;4484694;31;20091;-65
2023/05/11 04:03:16;;;;;;;7.37;2.40;;;;;;;10.60;86.85;98729.38;4484864;31;20096;-65
2023/05/11 04:05:44;;;;;;;2.92;2.15;;;;;;;10.69;85.47;98727.69;4484607;32;20104;-65
2023/05/11 04:08:11;;;;;;;8.00;2.87;;;;;;;10.81;85.75;98730.06;4484826;31;20100;-65
2023/05/11 04:10:39;;;;;;;4.80;2.28;;;;;;;10.89;84.29;98734.59;4484503;31;20111;-64
2023/05/11 04:13:06;;;;;;;3.25;1.90;;;;;;;11.11;83.96;98736.09;4495016;31;20114;-65
2023/05/11 04:15:34;;;;;;;4.75;2.10;;;;;;;11.17;82.94;98726.81;4488107;31;20208;-65
2023/05/11 04:18:02;;;;;;;5.47;2.12;;;;;;;11.40;81.73;98732.56;4482609;31;20089;-65
2023/05/11 04:20:31;;;;;;;5.78;1.73;;;;;;;11.50;80.85;98733.31;4483889;31;20084;-64
2023/05/11 04:22:58;;;;;;;3.83;2.30;;;;;;;11.62;79.82;98741.03;4484047;31;20100;-63
2023/05/11 04:25:26;;;;;;;3.00;2.25;;;;;;;11.64;79.64;98737.28;4484088;31;20794;-64
2023/05/11 04:27:53;;;;;;;3.50;1.87;;;;;;;11.81;78.91;98742.72;4483358;31;20152;-65
2023/05/11 04:30:20;;;;;;;6.22;2.35;;;;;;;11.76;78.11;98743.16;4494628;31;20087;-65
2023/05/11 04:32:48;;;;;;;4.47;2.10;;;;;;;11.66;78.68;98742.41;4483592;31;20164;-64
2023/05/11 04:35:15;;;;;;;2.35;1.83;;;;;;;11.64;78.53;98739.91;4482583;31;20108;-64
2023/05/11 04:37:42;;;;;;;3.12;1.98;;;;;;;11.68;80.07;98743.06;4486883;31;20488;-64
2023/05/11 04:40:10;;;;;;;6.40;2.03;;;;;;;11.67;79.38;98737.00;4494853;31;20567;-64
2023/05/11 04:42:38;;;;;;;5.60;2.42;;;;;;;11.86;78.57;98749.19;4483933;31;20096;-65
2023/05/11 04:45:06;;;;;;;6.25;2.00;;;;;;;11.89;77.63;98742.84;4492744;31;20139;-65
2023/05/11 04:47:33;;;;;;;5.00;2.20;;;;;;;11.95;77.44;98744.09;4486266;31;20248;-64
2023/05/11 04:50:01;;;;;;;6.05;2.20;;;;;;;11.99;77.04;98754.16;4491750;31;20526;-65
2023/05/11 04:52:29;;;;;;;5.65;1.98;;;;;;;12.13;77.00;98750.19;4480829;31;20513;-64
2023/05/11 04:54:57;;;;;;;6.30;2.50;;;;;;;12.14;76.48;98749.22;4481529;31;20139;-65
2023/05/11 04:57:24;;;;;;;4.70;2.60;;;;;;;12.21;75.23;98746.81;4481119;31;20112;-64
2023/05/11 04:59:51;;;;;;;9.18;2.40;;;;;;;12.27;76.30;98750.66;4486225;31;20130;-65
2023/05/11 05:02:18;;;;;;;13.52;2.83;;;;;;;12.34;74.75;98751.72;4491031;31;20179;-65
2023/05/11 05:04:46;;;;;;;14.57;2.75;;;;;;;12.18;76.41;98752.38;4494555;31;20413;-65
2023/05/11 05:07:13;;;;;;;21.00;2.87;;;;;;;12.44;76.77;98757.72;4488251;31;20125;-64
2023/05/11 05:09:40;;;;;;;17.60;2.78;;;;;;;12.43;76.95;98756.09;4491657;31;20164;-64
2023/05/11 05:12:11;;;;;;;6.18;2.28;;;;;;;12.58;75.95;98757.22;4482449;31;20108;-65
2023/05/11 05:14:38;;;;;;;10.68;2.87;;;;;;;12.39;74.79;98760.00;4493312;31;20125;-65
2023/05/11 05:17:06;;;;;;;8.20;2.55;;;;;;;12.51;74.85;98763.22;4487286;31;20143;-65
2023/05/11 05:19:33;;;;;;;8.45;2.72;;;;;;;12.67;75.06;98758.13;4487932;31;20118;-64
2023/05/11 05:22:01;;;;;;;50.47;4.37;;;;;;;12.84;73.89;98752.97;4489724;31;20780;-65
2023/05/11 05:24:29;;;;;;;18.33;3.37;;;;;;;12.83;73.71;98765.31;4485410;31;20141;-65
2023/05/11 05:26:56;;;;;;;14.93;2.78;;;;;;;12.96;74.33;98757.88;4489370;31;20453;-65
2023/05/11 05:29:23;;;;;;;24.27;3.53;;;;;;;12.95;72.17;98761.47;4490447;31;20119;-65
2023/05/11 05:31:51;;;;;;;27.30;3.37;;;;;;;13.04;70.68;98762.34;4490587;31;20104;-64
2023/05/11 05:34:18;;;;;;;17.10;3.45;;;;;;;13.20;71.28;98768.72;4492378;31;20160;-64
2023/05/11 05:36:46;;;;;;;34.10;3.53;;;;;;;13.09;71.10;98767.16;4488386;31;20226;-64
2023/05/11 05:39:13;;;;;;;63.30;6.62;;;;;;;13.17;69.59;98767.22;4483224;31;20112;-66
2023/05/11 05:41:41;;;;;;;33.72;4.12;;;;;;;13.10;70.50;98764.38;4493490;31;20187;-65
2023/05/11 05:44:08;;;;;;;32.53;5.22;;;;;;;12.88;69.88;98778.00;4488370;31;20096;-66
2023/05/11 05:46:36;;;;;;;36.75;5.03;;;;;;;12.83;69.44;98775.81;4491530;31;20126;-68
2023/05/11 05:49:04;;;;;;;36.63;5.30;;;;;;;13.17;69.05;98775.13;4494893;31;20087;-66
2023/05/11 05:51:32;;;;;;;18.85;3.83;;;;;;;13.40;67.19;98775.47;4489000;31;20493;-66
2023/05/11 05:54:00;;;;;;;4.72;2.30;;;;;;;13.56;66.32;98773.91;4482647;31;20160;-65
2023/05/11 05:56:27;;;;;;;12.02;2.95;;;;;;;13.58;65.28;98769.28;4486470;31;20587;-66
2023/05/11 05:58:55;;;;;;;35.35;4.00;;;;;;;13.71;64.92;98771.53;4496980;31;20099;-66
2023/05/11 06:01:22;;;;;;;8.60;2.60;;;;;;;13.47;65.50;98773.03;4495798;31;20091;-67
2023/05/11 06:03:51;;;;;;;15.35;2.78;;;;;;;13.70;65.93;98764.59;4494989;31;20100;-67
2023/05/11 06:06:19;;;;;;;13.65;2.67;;;;;;;13.93;64.47;98770.97;4491368;31;20115;-67
2023/05/11 06:08:47;;;;;;;10.43;3.62;;;;;;;14.26;63.98;98771.06;4493458;31;20122;-67
2023/05/11 06:11:15;;;;;;;7.40;2.87;;;;;;;14.37;63.48;98773.41;4484723;31;20088;-67
2023/05/11 06:13:43;;;;;;;19.15;2.97;;;;;;;14.35;63.19;98769.25;4481478;31;20104;-68
2023/05/11 06:16:10;;;;;;;21.75;3.28;;;;;;;14.35;63.76;98774.53;4483140;31;20161;-67
2023/05/11 06:18:37;;;;;;;8.52;2.85;;;;;;;14.54;63.06;98779.50;4480723;31;20721;-68
2023/05/11 06:21:05;;;;;;;10.90;2.62;;;;;;;14.41;62.16;98768.63;4483098;31;20203;-66
2023/05/11 06:23:32;;;;;;;6.85;2.08;;;;;;;14.30;63.81;98771.56;4480081;31;20101;-66
2023/05/11 06:26:00;;;;;;;12.75;2.83;;;;;;;14.08;62.42;98771.19;4481486;31;20119;-66
2023/05/11 06:28:28;;;;;;;4.00;2.25;;;;;;;14.17;63.16;98772.00;4482794;31;20088;-64
2023/05/11 06:30:59;;;;;;;21.15;3.42;;;;;;;14.22;63.17;98772.38;4479855;31;20168;-65
2023/05/11 06:33:28;;;;;;;7.45;2.47;;;;;;;14.11;62.94;98775.28;4485866;31;20125;-65
2023/05/11 06:35:56;;;;;;;9.50;3.40;;;;;;;13.95;64.74;98770.81;4484512;31;20133;-65
2023/05/11 06:38:27;;;;;;;9.68;2.45;;;;;;;13.81;63.27;98777.50;4484379;31;20104;-64
2023/05/11 06:40:55;;;;;;;6.20;2.33;;;;;;;14.00;62.90;98773.78;4488245;31;20171;-65
2023/05/11 06:43:22;;;;;;;29.10;3.33;;;;;;;13.96;63.30;98775.91;4480554;31;20119;-65
2023/05/11 06:45:51;;;;;;;13.18;5.57;;;;;;;14.20;63.36;98776.97;4485800;31;20092;-66
2023/05/11 06:48:22;;;;;;;5.35;3.30;;;;;;;14.31;63.08;98771.41;4483533;31;20446;-67
2023/05/11 06:50:50;;;;;;;7.18;2.92;;;;;;;14.65;61.64;98781.03;4484947;31;20161;-66
2023/05/11 06:53:17;;;;;;;18.95;3.65;;;;;;;14.64;60.62;98774.16;4484487;31;20130;-66
2023/05/11 06:55:44;;;;;;;4.95;2.78;;;;;;;14.83;60.91;98774.81;4484557;31;20159;-66
2023/05/11 06:58:12;;;;;;;14.93;2.80;;;;;;;14.84;60.63;98776.47;4486981;31;20771;-66
2023/05/11 07:00:39;;;;;;;6.85;3.25;;;;;;;14.90;60.60;98770.53;4485028;31;20116;-66
2023/05/11 07:03:06;;;;;;;43.22;3.60;;;;;;;14.87;59.17;98778.78;4486548;31;21364;-66
2023/05/11 07:05:35;;;;;;;5.35;2.72;;;;;;;14.89;60.22;98768.88;4484626;31;20096;-67
2023/05/11 07:08:03;;;;;;;17.87;2.95;;;;;;;14.97;60.10;98768.03;4481470;31;20104;-67
2023/05/11 07:10:31;;;;;;;7.60;2.90;;;;;;;14.88;58.95;98760.16;4485272;31;20176;-66
2023/05/11 07:12:58;;;;;;;9.20;2.92;;;;;;;14.79;59.83;98770.84;4489373;31;20118;-66
2023/05/11 07:15:26;;;;;;;4.90;2.45;;;;;;;15.08;60.18;98765.09;4487020;31;20183;-66
2023/05/11 07:17:53;;;;;;;23.50;3.08;;;;;;;15.39;60.72;98761.72;4486214;31;20167;-66
2023/05/11 07:20:20;;;;;;;7.25;2.28;;;;;;;15.73;59.22;98763.28;4476951;31;20104;-67
2023/05/11 07:22:47;;;;;;;7.93;2.42;;;;;;;15.98;55.65;98769.34;4480235;31;20126;-67
2023/05/11 07:25:15;;;;;;;6.37;2.25;;;;;;;15.65;55.94;98766.78;4483103;31;20160;-66
2023/05/11 07:27:42;;;;;;;3.90;2.30;;;;;;;15.67;56.54;98763.97;4482975;31;20215;-66
2023/05/11 07:30:09;;;;;;;9.13;2.47;;;;;;;15.85;56.48;98764.63;4482954;31;20096;-67
2023/05/11 07:32:37;;;;;;;7.72;2.40;;;;;;;15.87;57.23;98769.72;4482179;31;20492;-67
2023/05/11 07:35:05;;;;;;;8.75;2.67;;;;;;;16.18;56.17;98768.91;4486248;31;20100;-68
2023/05/11 07:37:32;;;;;;;45.17;4.28;;;;;;;16.11;56.16;98769.59;4487547;31;21881;-67
2023/05/11 07:40:00;;;;;;;4.80;2.20;;;;;;;16.27;54.44;98757.31;4484242;31;20123;-65
2023/05/11 07:42:29;;;;;;;163.98;10.70;;;;;;;16.16;54.51;98758.50;4485212;31;20119;-67
2023/05/11 07:44:56;;;;;;;11.30;2.30;;;;;;;16.33;54.56;98764.53;4485007;31;20119;-67
2023/05/11 07:47:24;;;;;;;22.05;3.08;;;;;;;16.59;53.82;98760.72;4483212;31;20156;-67
2023/05/11 07:49:51;;;;;;;15.32;2.20;;;;;;;16.58;52.59;98756.44;4478159;31;209179;-67
2023/05/11 07:52:18;;;;;;;8.40;3.28;;;;;;;16.29;52.13;98763.22;4485337;31;20088;-67
2023/05/11 07:54:45;;;;;;;7.70;2.40;;;;;;;16.23;51.99;98756.00;4485044;31;20129;-67
2023/05/11 07:57:12;;;;;;;19.20;2.65;;;;;;;16.22;52.38;98757.00;4484303;31;20129;-67
2023/05/11 07:59:40;;;;;;;4.87;2.20;;;;;;;16.38;52.75;98762.22;4484961;31;20104;-68
2023/05/11 08:02:08;;;;;;;6.53;2.12;;;;;;;16.54;50.56;98765.75;4480080;31;20253;-65
2023/05/11 08:04:39;;;;;;;16.33;1.80;;;;;;;16.37;50.57;98765.84;4483236;31;20103;-66
2023/05/11 08:07:07;;;;;;;26.98;3.30;;;;;;;16.37;51.24;98765.84;4481464;31;20092;-66
2023/05/11 08:09:35;;;;;;;4.87;2.45;;;;;;;16.34;52.03;98760.91;4486067;31;20104;-66
2023/05/11 08:12:03;;;;;;;41.50;4.45;;;;;;;16.40;51.10;98762.03;4481329;31;20109;-67
2023/05/11 08:14:31;;;;;;;24.58;4.28;;;;;;;16.47;51.20;98765.59;4483251;31;20158;-67
2023/05/11 08:16:58;;;;;;;6.12;1.90;;;;;;;16.67;50.56;98765.97;4487676;31;20126;-67
2023/05/11 08:19:26;;;;;;;5.25;2.15;;;;;;;16.92;50.85;98761.34;4482801;31;20196;-66
2023/05/11 08:21:53;;;;;;;8.55;2.67;;;;;;;16.91;50.72;98761.50;4484832;31;20439;-66
2023/05/11 08:24:20;;;;;;;4.72;2.40;;;;;;;16.98;51.29;98749.22;4481519;31;20104;-66
2023/05/11 08:26:47;;;;;;;4.57;1.92;;;;;;;17.00;51.50;98747.22;4488023;31;20117;-66
2023/05/11 08:29:14;;;;;;;9.88;2.35;;;;;;;17.12;51.99;98753.75;4485746;31;21313;-66
2023/05/11 08:31:41;;;;;;;6.22;2.60;;;;;;;17.08;51.64;98747.16;4483209;31;20590;-66
2023/05/11 08:34:10;;;;;;;6.22;2.20;;;;;;;17.12;51.27;98748.44;4484438;31;20155;-66
2023/05/11 08:36:39;;;;;;;3.12;2.30;;;;;;;17.09;51.43;98751.41;4486871;31;20118;-66
2023/05/11 08:39:07;;;;;;;5.95;2.20;;;;;;;17.01;52.19;98738.28;4487660;31;20137;-66
2023/05/11 08:41:34;;;;;;;11.12;3.20;;;;;;;17.10;52.13;98734.56;4486071;31;20165;-66
2023/05/11 08:44:02;;;;;;;3.47;2.03;;;;;;;17.03;49.79;98744.19;4483564;31;20526;-65
2023/05/11 08:46:34;;;;;;;11.48;2.40;;;;;;;17.31;50.63;98735.69;4487313;31;20475;-66
2023/05/11 08:49:02;;;;;;;3.97;2.03;;;;;;;17.56;48.49;98737.06;4484648;31;20163;-64
2023/05/11 08:51:29;;;;;;;11.70;3.90;;;;;;;17.79;47.47;98730.84;4485128;31;20779;-66
2023/05/11 08:53:58;;;;;;;24.63;4.22;;;;;;;17.67;47.37;98729.66;4485240;31;20119;-66
2023/05/11 08:56:26;;;;;;;8.95;3.87;;;;;;;17.86;46.85;98717.66;4484786;31;20128;-65
2023/05/11 08:58:55;;;;;;;10.27;3.33;;;;;;;17.85;46.26;98737.22;4483115;31;20100;-66
2023/05/11 09:01:22;;;;;;;4.78;2.42;;;;;;;17.73;47.32;98727.09;4487619;31;20116;-66
2023/05/11 09:03:50;;;;;;;36.80;3.67;;;;;;;17.77;47.72;98724.88;4483031;31;20207;-66
2023/05/11 09:06:18;;;;;;;10.15;2.67;;;;;;;18.15;47.62;98716.78;4483153;31;20166;-66
2023/05/11 09:08:46;;;;;;;4.82;2.25;;;;;;;18.06;46.14;98712.63;4485542;31;20100;-66
2023/05/11 09:11:13;;;;;;;38.85;4.15;;;;;;;18.08;45.68;98707.97;4482932;31;20140;-66
2023/05/11 09:13:41;;;;;;;4.40;1.73;;;;;;;18.23;45.47;98716.69;4481329;31;20840;-66
2023/05/11 09:16:08;;;;;;;5.03;1.98;;;;;;;18.25;44.24;98711.19;4481082;31;20119;-66
2023/05/11 09:18:58;;;;;;;11.55;2.25;;;;;;;18.44;45.80;98715.88;4485640;31;20108;-64
2023/05/11 09:21:26;;;;;;;15.48;2.40;;;;;;;18.31;43.68;98710.44;4485995;31;20080;-65
2023/05/11 09:23:55;;;;;;;10.80;2.25;;;;;;;18.38;44.48;98706.03;4481336;31;20476;-65
2023/05/11 09:26:28;;;;;;;6.15;1.73;;;;;;;18.65;43.20;98708.09;4483729;31;20083;-65
2023/05/11 09:28:58;;;;;;;17.25;1.73;;;;;;;18.61;43.22;98699.72;4486293;31;20096;-66
2023/05/11 09:31:44;;;;;;;14.80;2.75;;;;;;;18.36;44.29;98701.91;4486241;31;20156;-66
2023/05/11 09:34:13;;;;;;;33.30;2.90;;;;;;;18.39;43.52;98699.69;4481975;31;20112;-66
2023/05/11 09:36:42;;;;;;;9.23;1.60;;;;;;;18.40;42.79;98698.69;4485515;31;20111;-65
2023/05/11 09:39:10;;;;;;;4.93;1.50;;;;;;;18.47;43.23;98690.81;4484825;31;20457;-67
2023/05/11 09:41:42;;;;;;;53.50;3.45;;;;;;;18.72;43.71;98693.88;4487675;31;20175;-67
2023/05/11 09:44:12;;;;;;;8.38;1.50;;;;;;;18.77;41.01;98696.78;4484894;31;20176;-66
2023/05/11 09:46:41;;;;;;;18.02;2.50;;;;;;;18.80;41.38;98687.59;4484250;31;20134;-66
2023/05/11 09:49:10;;;;;;;5.30;1.80;;;;;;;18.81;41.53;98689.25;4483885;31;20124;-66
2023/05/11 09:51:41;;;;;;;17.52;2.42;;;;;;;19.10;39.30;98704.19;4488054;31;20099;-65
2023/05/11 09:54:16;;;;;;;20.90;1.87;;;;;;;19.02;38.95;98684.97;4482722;31;20505;-65
2023/05/11 09:56:55;;;;;;;4.57;1.45;;;;;;;19.18;39.06;98689.94;4480955;31;20130;-64
2023/05/11 09:59:40;;;;;;;19.98;1.80;;;;;;;18.95;38.69;98684.91;4485341;31;20101;-66
2023/05/11 10:02:24;;;;;;;3.10;1.50;;;;;;;18.95;39.69;98696.31;4493931;31;20091;-65
2023/05/11 10:04:57;;;;;;;8.10;1.50;;;;;;;19.08;39.59;98677.03;4492109;31;20088;-66
2023/05/11 10:07:27;;;;;;;13.23;2.17;;;;;;;19.17;37.76;98680.34;4494018;31;20102;-65
2023/05/11 10:09:57;;;;;;;5.35;1.75;;;;;;;19.35;38.10;98674.53;4491252;31;20114;-66
2023/05/11 10:12:26;;;;;;;46.42;4.00;;;;;;;18.99;36.92;98672.06;4486239;31;20203;-65
2023/05/11 10:15:00;;;;;;;6.60;1.42;;;;;;;18.86;36.94;98681.56;4493123;31;20093;-65
2023/05/11 10:17:29;;;;;;;37.30;3.55;;;;;;;18.80;37.72;98671.69;4494987;31;20122;-65
2023/05/11 10:19:57;;;;;;;5.97;1.80;;;;;;;18.92;38.02;98670.16;4494260;31;20122;-65
2023/05/11 10:22:26;;;;;;;17.70;2.83;;;;;;;19.33;37.32;98677.41;4480208;31;20091;-67
2023/05/11 10:24:55;;;;;;;120.20;9.10;;;;;;;19.86;37.23;98670.69;4489955;31;20100;-66
2023/05/11 10:27:23;;;;;;;22.50;2.60;;;;;;;19.93;36.38;98662.75;4492662;31;20171;-66
2023/05/11 10:29:51;;;;;;;1.90;1.30;;;;;;;19.92;36.05;98661.09;4492161;31;20590;-66
2023/05/11 10:32:20;;;;;;;53.83;4.03;;;;;;;20.11;36.29;98657.66;4490713;31;20089;-66
2023/05/11 10:34:49;;;;;;;25.67;2.60;;;;;;;19.88;34.82;98665.16;4492225;31;20195;-65
2023/05/11 10:37:16;;;;;;;12.82;1.80;;;;;;;19.79;36.54;98664.53;4491825;31;20138;-67
2023/05/11 10:39:44;;;;;;;13.90;2.30;;;;;;;19.88;37.08;98662.50;4491819;31;20215;-66
2023/05/11 10:42:41;;;;;;;47.47;5.15;;;;;;;19.91;36.46;98668.25;4495064;31;20106;-66
2023/05/11 10:45:12;;;;;;;178.20;8.68;;;;;;;20.08;34.87;98658.06;4487434;31;20145;-66
2023/05/11 10:48:10;;;;;;;17.58;1.83;;;;;;;19.72;35.19;98658.34;4497786;31;20096;-66
2023/05/11 10:50:56;;;;;;;66.82;7.35;;;;;;;19.80;36.21;98661.69;4488853;31;20398;-65
2023/05/11 10:54:06;;;;;;;15.65;2.58;;;;;;;20.23;36.41;98662.38;4483554;31;20104;-65
2023/05/11 10:56:47;;;;;;;22.60;2.35;;;;;;;19.82;37.48;98645.53;4482339;31;20178;-64
2023/05/11 10:59:30;;;;;;;12.50;1.70;;;;;;;19.50;37.44;98653.16;4482300;31;20130;-66
2023/05/11 11:02:00;;;;;;;11.30;1.77;;;;;;;19.31;37.93;98647.53;4480981;31;20080;-64
2023/05/11 11:04:48;;;;;;;15.45;1.90;;;;;;;19.11;38.45;98655.41;4483705;31;20116;-66
2023/05/11 11:07:18;;;;;;;49.13;5.22;;;;;;;19.00;37.87;98645.34;4488961;31;20096;-66
2023/05/11 11:10:05;;;;;;;50.33;3.65;;;;;;;19.09;39.05;98640.66;4488482;31;20857;-67
2023/05/11 11:12:35;;;;;;;11.35;1.98;;;;;;;19.18;38.81;98647.44;4491359;31;20105;-66
2023/05/11 11:15:05;;;;;;;2.65;1.92;;;;;;;19.33;38.52;98645.53;4482329;31;20103;-66
2023/05/11 11:17:34;;;;;;;7.82;1.50;;;;;;;19.38;37.50;98644.09;4488814;31;20144;-66
2023/05/11 11:20:03;;;;;;;3.62;1.40;;;;;;;19.19;37.42;98641.12;4485961;31;20107;-66
2023/05/11 11:22:33;;;;;;;14.80;1.95;;;;;;;19.08;37.44;98644.34;4487898;31;20155;-66
2023/05/11 11:25:03;;;;;;;18.25;2.33;;;;;;;19.64;37.78;98627.44;4489841;31;20114;-67
2023/05/11 11:27:40;;;;;;;11.25;2.17;;;;;;;20.55;35.53;98634.19;4493180;31;20149;-67
2023/05/11 11:30:24;;;;;;;6.70;1.62;;;;;;;20.80;34.21;98633.56;4486566;31;20414;-67
2023/05/11 11:33:13;;;;;;;25.65;3.53;;;;;;;21.04;34.44;98624.91;4489749;31;20096;-67
2023/05/11 11:35:40;;;;;;;14.95;1.40;;;;;;;20.77;34.93;98626.81;4433737;32;20097;-67
2023/05/11 11:38:13;;;;;;;9.30;1.90;;;;;;;20.78;34.31;98624.97;4433149;32;20589;-67
2023/05/11 11:40:45;;;;;;;4.50;1.30;;;;;;;20.93;34.38;98617.59;4427912;32;20151;-67
2023/05/11 11:43:27;;;;;;;6.22;1.40;;;;;;;20.90;33.72;98629.44;4431185;32;20097;-67